createdAt,value
2022-12-25T00:00:02.078Z,4.49
2022-12-25T00:02:03.673Z,4.52
2022-12-25T00:04:05.364Z,4.55
2022-12-25T00:06:07.308Z,4.61
2022-12-25T00:08:09.982Z,4.68
2022-12-25T00:10:11.816Z,4.72
2022-12-25T00:12:13.274Z,4.75
2022-12-25T00:14:14.714Z,4.77
2022-12-25T00:16:20.461Z,4.79
2022-12-25T00:18:22.595Z,4.82
2022-12-25T00:20:24.110Z,4.83
2022-12-25T00:22:25.572Z,4.84
2022-12-25T00:24:27.032Z,4.86
2022-12-25T00:26:28.595Z,4.87
2022-12-25T00:28:30.054Z,4.90
2022-12-25T00:30:31.569Z,4.91
2022-12-25T00:32:36.480Z,4.91
2022-12-25T00:34:37.925Z,4.91
2022-12-25T00:36:41.924Z,4.88
2022-12-25T00:38:43.904Z,4.84
2022-12-25T00:40:45.380Z,4.83
2022-12-25T00:42:49.200Z,4.81
2022-12-25T00:44:50.977Z,4.78
2022-12-25T00:46:52.576Z,4.76
2022-12-25T00:48:54.110Z,4.72
2022-12-25T00:50:57.563Z,4.69
2022-12-25T00:52:59.007Z,4.66
2022-12-25T00:55:00.566Z,4.62
2022-12-25T00:57:02.381Z,4.58
2022-12-25T00:59:03.910Z,4.54
2022-12-25T01:01:05.516Z,4.51
2022-12-25T01:03:07.049Z,4.48
2022-12-25T01:05:09.146Z,4.44
2022-12-25T01:07:11.556Z,4.40
2022-12-25T01:09:31.308Z,4.37
2022-12-25T01:11:32.877Z,4.34
2022-12-25T01:13:37.745Z,4.31
2022-12-25T01:15:39.226Z,4.28
2022-12-25T01:17:42.293Z,4.24
2022-12-25T01:19:43.728Z,4.21
2022-12-25T01:21:45.177Z,4.19
2022-12-25T01:23:48.395Z,4.17
2022-12-25T01:25:49.882Z,4.14
2022-12-25T01:27:51.423Z,4.10
2022-12-25T01:29:52.889Z,4.06
2022-12-25T01:31:54.404Z,4.03
2022-12-25T01:33:56.004Z,4.02
2022-12-25T01:35:58.688Z,4.00
2022-12-25T01:38:00.240Z,3.98
2022-12-25T01:40:01.829Z,3.97
2022-12-25T01:42:03.427Z,3.93
2022-12-25T01:44:37.235Z,3.91
2022-12-25T01:46:38.706Z,3.87
2022-12-25T01:48:40.197Z,3.85
2022-12-25T01:50:45.989Z,3.83
2022-12-25T01:52:48.264Z,3.79
2022-12-25T01:54:51.710Z,3.78
2022-12-25T01:56:56.783Z,3.75
2022-12-25T01:58:59.787Z,3.73
2022-12-25T02:01:01.331Z,3.72
2022-12-25T02:03:03.826Z,3.72
2022-12-25T02:05:15.677Z,3.70
2022-12-25T02:07:20.410Z,3.67
2022-12-25T02:09:21.888Z,3.66
2022-12-25T02:11:42.064Z,3.64
2022-12-25T02:13:43.558Z,3.62
2022-12-25T02:15:45.010Z,3.61
2022-12-25T02:17:57.417Z,3.60
2022-12-25T02:20:26.359Z,3.58
2022-12-25T02:22:44.285Z,3.52
2022-12-25T02:25:05.534Z,3.47
2022-12-25T02:27:26.736Z,3.44
2022-12-25T02:29:50.086Z,3.43
2022-12-25T02:32:28.109Z,3.40
2022-12-25T02:34:29.483Z,3.38
2022-12-25T02:36:53.869Z,3.36
2022-12-25T02:39:19.803Z,3.35
2022-12-25T02:41:21.609Z,3.34
2022-12-25T02:43:48.475Z,3.35
2022-12-25T02:46:13.832Z,3.34
2022-12-25T02:48:35.574Z,3.31
2022-12-25T02:50:55.928Z,3.27
2022-12-25T02:53:20.294Z,3.24
2022-12-25T02:55:44.552Z,3.24
2022-12-25T02:58:09.385Z,3.24
2022-12-25T03:00:30.724Z,3.26
2022-12-25T03:02:51.974Z,3.28
2022-12-25T03:05:15.305Z,3.31
2022-12-25T03:07:20.519Z,3.30
2022-12-25T03:09:45.789Z,3.31
2022-12-25T03:11:54.592Z,3.29
2022-12-25T03:14:17.834Z,3.26
2022-12-25T03:16:39.388Z,3.26
2022-12-25T03:18:41.794Z,3.25
2022-12-25T03:21:02.371Z,3.26
2022-12-25T03:23:24.428Z,3.25
2022-12-25T03:25:47.385Z,3.25
2022-12-25T03:27:54.478Z,3.23
2022-12-25T03:30:14.935Z,3.23
2022-12-25T03:32:25.231Z,3.22
2022-12-25T03:34:58.653Z,3.22
2022-12-25T03:37:36.625Z,3.20
2022-12-25T03:39:54.945Z,3.19
2022-12-25T03:42:20.950Z,3.18
2022-12-25T03:44:42.829Z,3.18
2022-12-25T03:47:07.067Z,3.17
2022-12-25T03:49:35.591Z,3.15
2022-12-25T03:51:57.422Z,3.13
2022-12-25T03:54:24.331Z,3.14
2022-12-25T03:56:48.192Z,3.12
2022-12-25T03:59:11.111Z,3.11
2022-12-25T04:01:31.571Z,3.09
2022-12-25T04:03:51.771Z,3.09
2022-12-25T04:06:11.937Z,3.08
2022-12-25T04:08:31.698Z,3.08
2022-12-25T04:10:51.693Z,3.08
2022-12-25T04:13:12.026Z,3.08
2022-12-25T04:15:31.836Z,3.08
2022-12-25T04:17:51.782Z,3.08
2022-12-25T04:20:11.629Z,3.07
2022-12-25T04:22:31.466Z,3.07
2022-12-25T04:24:51.332Z,3.07
2022-12-25T04:27:11.115Z,3.08
2022-12-25T04:29:30.775Z,3.08
2022-12-25T04:31:50.762Z,3.08
2022-12-25T04:34:18.053Z,3.08
2022-12-25T04:36:19.780Z,3.07
2022-12-25T04:38:22.294Z,3.07
2022-12-25T04:40:23.882Z,3.08
2022-12-25T04:42:25.343Z,3.08
2022-12-25T04:44:27.177Z,3.08
2022-12-25T04:46:28.721Z,3.07
2022-12-25T04:48:32.839Z,3.07
2022-12-25T04:50:34.305Z,3.06
2022-12-25T04:52:37.852Z,3.06
2022-12-25T04:54:39.325Z,3.07
2022-12-25T04:56:45.486Z,3.06
2022-12-25T04:58:47.695Z,3.05
2022-12-25T05:00:49.158Z,3.05
2022-12-25T05:02:50.801Z,3.06
2022-12-25T05:04:52.350Z,3.05
2022-12-25T05:06:53.818Z,3.04
2022-12-25T05:08:55.327Z,3.03
2022-12-25T05:10:56.793Z,3.01
2022-12-25T05:12:58.224Z,3.00
2022-12-25T05:14:59.680Z,3.01
2022-12-25T05:17:01.153Z,3.04
2022-12-25T05:19:02.655Z,3.05
2022-12-25T05:21:04.588Z,3.08
2022-12-25T05:23:06.126Z,3.11
2022-12-25T05:25:07.953Z,3.13
2022-12-25T05:27:09.431Z,3.17
2022-12-25T05:29:11.032Z,3.19
2022-12-25T05:31:12.575Z,3.22
2022-12-25T05:33:14.222Z,3.24
2022-12-25T05:35:15.865Z,3.28
2022-12-25T05:37:17.312Z,3.31
2022-12-25T05:39:19.094Z,3.34
2022-12-25T05:41:20.688Z,3.37
2022-12-25T05:43:22.185Z,3.40
2022-12-25T05:45:23.652Z,3.44
2022-12-25T05:47:25.129Z,3.46
2022-12-25T05:49:26.557Z,3.49
2022-12-25T05:51:28.088Z,3.50
2022-12-25T05:53:29.539Z,3.51
2022-12-25T05:55:30.993Z,3.51
2022-12-25T05:57:32.533Z,3.51
2022-12-25T05:59:34.209Z,3.49
2022-12-25T06:01:35.707Z,3.50
2022-12-25T06:03:37.382Z,3.51
2022-12-25T06:05:39.785Z,3.52
2022-12-25T06:07:41.316Z,3.53
2022-12-25T06:09:43.781Z,3.55
2022-12-25T06:11:45.897Z,3.57
2022-12-25T06:13:52.116Z,3.61
2022-12-25T06:15:53.762Z,3.62
2022-12-25T06:17:55.339Z,3.65
2022-12-25T06:19:56.788Z,3.67
2022-12-25T06:21:58.284Z,3.69
2022-12-25T06:24:00.759Z,3.73
2022-12-25T06:26:07.639Z,3.74
2022-12-25T06:28:09.111Z,3.76
2022-12-25T06:30:10.879Z,3.79
2022-12-25T06:32:12.375Z,3.83
2022-12-25T06:34:16.465Z,3.84
2022-12-25T06:36:24.265Z,3.87
2022-12-25T06:38:25.787Z,3.89
2022-12-25T06:40:27.277Z,3.89
2022-12-25T06:42:28.738Z,3.92
2022-12-25T06:44:30.205Z,3.94
2022-12-25T06:46:31.732Z,3.98
2022-12-25T06:48:34.230Z,3.99
2022-12-25T06:50:35.675Z,3.99
2022-12-25T06:52:37.120Z,4.02
2022-12-25T06:54:38.590Z,4.04
2022-12-25T06:56:40.122Z,4.05
2022-12-25T06:58:46.407Z,4.06
2022-12-25T07:00:47.920Z,4.07
2022-12-25T07:02:49.780Z,4.10
2022-12-25T07:04:52.542Z,4.12
2022-12-25T07:06:54.164Z,4.14
2022-12-25T07:08:55.636Z,4.15
2022-12-25T07:10:57.153Z,4.17
2022-12-25T07:12:58.599Z,4.19
2022-12-25T07:15:00.080Z,4.20
2022-12-25T07:17:01.633Z,4.22
2022-12-25T07:19:03.229Z,4.23
2022-12-25T07:21:14.058Z,4.24
2022-12-25T07:23:15.549Z,4.26
2022-12-25T07:25:17.029Z,4.27
2022-12-25T07:27:18.533Z,4.30
2022-12-25T07:29:19.992Z,4.32
2022-12-25T07:31:21.751Z,4.35
2022-12-25T07:33:23.328Z,4.38
2022-12-25T07:35:24.838Z,4.40
2022-12-25T07:37:26.288Z,4.43
2022-12-25T07:39:28.185Z,4.45
2022-12-25T07:41:29.664Z,4.48
2022-12-25T07:43:31.151Z,4.51
2022-12-25T07:45:32.621Z,4.54
2022-12-25T07:47:34.128Z,4.57
2022-12-25T07:49:36.098Z,4.59
2022-12-25T07:51:37.801Z,4.63
2022-12-25T07:53:39.583Z,4.66
2022-12-25T07:55:41.076Z,4.69
2022-12-25T07:57:42.679Z,4.72
2022-12-25T07:59:44.172Z,4.76
2022-12-25T08:01:46.010Z,4.81
2022-12-25T08:03:53.157Z,4.84
2022-12-25T08:05:54.713Z,4.87
2022-12-25T08:07:58.091Z,4.91
2022-12-25T08:09:59.655Z,4.95
2022-12-25T08:12:01.159Z,4.98
2022-12-25T08:14:05.885Z,5.02
2022-12-25T08:16:10.117Z,5.04
2022-12-25T08:18:11.733Z,5.09
2022-12-25T08:20:13.679Z,5.13
2022-12-25T08:22:15.216Z,5.17
2022-12-25T08:24:16.662Z,5.19
2022-12-25T08:26:22.536Z,5.23
2022-12-25T08:28:23.978Z,5.26
2022-12-25T08:30:25.490Z,5.30
2022-12-25T08:32:27.004Z,5.34
2022-12-25T08:34:28.493Z,5.39
2022-12-25T08:36:30.750Z,5.43
2022-12-25T08:38:32.495Z,5.48
2022-12-25T08:40:33.959Z,5.52
2022-12-25T08:42:35.417Z,5.56
2022-12-25T08:44:36.878Z,5.61
2022-12-25T08:46:39.837Z,5.62
2022-12-25T08:48:43.620Z,5.67
2022-12-25T08:50:49.917Z,5.71
2022-12-25T08:52:51.392Z,5.75
2022-12-25T08:54:52.842Z,5.79
2022-12-25T08:57:02.128Z,5.83
2022-12-25T08:59:04.099Z,5.86
2022-12-25T09:01:06.302Z,5.91
2022-12-25T09:03:07.982Z,5.95
2022-12-25T09:05:09.911Z,5.99
2022-12-25T09:07:11.573Z,6.02
2022-12-25T09:09:13.078Z,6.05
2022-12-25T09:11:15.123Z,6.09
2022-12-25T09:13:16.676Z,6.12
2022-12-25T09:15:18.233Z,6.15
2022-12-25T09:17:19.738Z,6.17
2022-12-25T09:19:22.101Z,6.18
2022-12-25T09:21:23.841Z,6.21
2022-12-25T09:23:25.432Z,6.24
2022-12-25T09:25:27.037Z,6.27
2022-12-25T09:27:28.507Z,6.29
2022-12-25T09:29:29.942Z,6.32
2022-12-25T09:31:31.619Z,6.34
2022-12-25T09:33:33.196Z,6.35
2022-12-25T09:35:34.914Z,6.36
2022-12-25T09:37:36.359Z,6.39
2022-12-25T09:39:42.279Z,6.40
2022-12-25T09:41:50.304Z,6.42
2022-12-25T09:43:57.483Z,6.42
2022-12-25T09:46:02.309Z,6.43
2022-12-25T09:48:04.248Z,6.43
2022-12-25T09:50:14.895Z,6.46
2022-12-25T09:52:37.584Z,6.45
2022-12-25T09:54:46.593Z,6.47
2022-12-25T09:56:48.326Z,6.48
2022-12-25T09:58:49.790Z,6.50
2022-12-25T10:01:02.009Z,6.51
2022-12-25T10:03:24.203Z,6.54
2022-12-25T10:05:37.958Z,6.55
2022-12-25T10:08:09.941Z,6.58
2022-12-25T10:10:49.439Z,6.61
2022-12-25T10:12:59.663Z,6.63
2022-12-25T10:15:17.541Z,6.64
2022-12-25T10:17:28.370Z,6.66
2022-12-25T10:19:57.392Z,6.67
2022-12-25T10:22:03.947Z,6.69
2022-12-25T10:24:31.260Z,6.70
2022-12-25T10:26:34.344Z,6.71
2022-12-25T10:28:43.637Z,6.72
2022-12-25T10:30:45.526Z,6.73
2022-12-25T10:32:48.025Z,6.73
2022-12-25T10:34:50.040Z,6.73
2022-12-25T10:36:52.180Z,6.72
2022-12-25T10:38:54.648Z,6.72
2022-12-25T10:41:21.331Z,6.72
2022-12-25T10:43:35.666Z,6.71
2022-12-25T10:45:48.621Z,6.71
2022-12-25T10:47:59.539Z,6.71
2022-12-25T10:50:20.265Z,6.72
2022-12-25T10:52:25.133Z,6.73
2022-12-25T10:54:29.666Z,6.74
2022-12-25T10:56:31.196Z,6.74
2022-12-25T10:58:33.786Z,6.77
2022-12-25T11:00:35.312Z,6.79
2022-12-25T11:02:40.774Z,6.80
2022-12-25T11:04:42.994Z,6.82
2022-12-25T11:06:44.467Z,6.82
2022-12-25T11:08:52.967Z,6.84
2022-12-25T11:11:08.492Z,6.85
2022-12-25T11:13:24.387Z,6.87
2022-12-25T11:15:34.182Z,6.89
2022-12-25T11:17:35.925Z,6.90
2022-12-25T11:19:37.359Z,6.91
2022-12-25T11:21:38.834Z,6.93
2022-12-25T11:23:48.290Z,6.97
2022-12-25T11:26:05.477Z,6.99
2022-12-25T11:28:07.270Z,7.02
2022-12-25T11:30:16.170Z,7.05
2022-12-25T11:32:27.839Z,7.09
2022-12-25T11:34:37.045Z,7.10
2022-12-25T11:36:46.148Z,7.12
2022-12-25T11:38:47.884Z,7.14
2022-12-25T11:40:52.237Z,7.15
2022-12-25T11:43:07.912Z,7.18
2022-12-25T11:45:31.331Z,7.18
2022-12-25T11:47:59.834Z,7.22
2022-12-25T11:50:14.007Z,7.22
2022-12-25T11:52:17.375Z,7.23
2022-12-25T11:54:33.526Z,7.25
2022-12-25T11:56:37.831Z,7.27
2022-12-25T11:58:49.388Z,7.29
2022-12-25T12:00:54.330Z,7.30
2022-12-25T12:03:03.956Z,7.33
2022-12-25T12:05:17.854Z,7.36
2022-12-25T12:07:25.486Z,7.40
2022-12-25T12:09:53.628Z,7.40
2022-12-25T12:12:36.407Z,7.41
2022-12-25T12:14:47.876Z,7.43
2022-12-25T12:16:49.516Z,7.44
2022-12-25T12:18:51.146Z,7.45
2022-12-25T12:21:18.366Z,7.48
2022-12-25T12:23:19.932Z,7.48
2022-12-25T12:25:22.294Z,7.49
2022-12-25T12:27:26.584Z,7.49
2022-12-25T12:29:45.615Z,7.51
2022-12-25T12:31:50.469Z,7.49
2022-12-25T12:33:56.105Z,7.50
2022-12-25T12:35:58.162Z,7.50
2022-12-25T12:38:04.258Z,7.50
2022-12-25T12:40:21.316Z,7.49
2022-12-25T12:42:30.982Z,7.48
2022-12-25T12:44:36.711Z,7.47
2022-12-25T12:46:39.949Z,7.46
2022-12-25T12:48:44.649Z,7.46
2022-12-25T12:50:46.588Z,7.45
2022-12-25T12:52:48.091Z,7.44
2022-12-25T12:54:59.446Z,7.43
2022-12-25T12:57:04.551Z,7.41
2022-12-25T12:59:09.840Z,7.41
2022-12-25T13:01:18.814Z,7.41
2022-12-25T13:03:45.067Z,7.38
2022-12-25T13:05:49.588Z,7.37
2022-12-25T13:08:05.634Z,7.36
2022-12-25T13:10:23.833Z,7.35
2022-12-25T13:12:25.588Z,7.33
2022-12-25T13:14:27.468Z,7.34
2022-12-25T13:16:36.933Z,7.34
2022-12-25T13:18:39.700Z,7.34
2022-12-25T13:20:57.320Z,7.33
2022-12-25T13:22:58.788Z,7.33
2022-12-25T13:25:02.630Z,7.33
2022-12-25T13:27:22.822Z,7.34
2022-12-25T13:29:36.285Z,7.34
2022-12-25T13:31:40.562Z,7.33
2022-12-25T13:33:58.160Z,7.34
2022-12-25T13:35:59.857Z,7.33
2022-12-25T13:38:01.370Z,7.34
2022-12-25T13:40:07.840Z,7.34
2022-12-25T13:42:10.049Z,7.32
2022-12-25T13:44:23.637Z,7.31
2022-12-25T13:46:27.500Z,7.30
2022-12-25T13:48:29.065Z,7.30
2022-12-25T13:50:33.143Z,7.30
2022-12-25T13:52:37.637Z,7.28
2022-12-25T13:54:39.520Z,7.29
2022-12-25T13:56:59.155Z,7.28
2022-12-25T13:59:00.712Z,7.27
2022-12-25T14:01:03.412Z,7.26
2022-12-25T14:03:09.911Z,7.27
2022-12-25T14:05:39.805Z,7.27
2022-12-25T14:07:50.242Z,7.23
2022-12-25T14:10:03.302Z,7.24
2022-12-25T14:12:05.272Z,7.22
2022-12-25T14:14:17.876Z,7.23
2022-12-25T14:16:21.093Z,7.19
2022-12-25T14:18:24.191Z,7.20
2022-12-25T14:20:33.701Z,7.21
2022-12-25T14:22:36.000Z,7.19
2022-12-25T14:24:39.489Z,7.20
2022-12-25T14:26:41.426Z,7.20
2022-12-25T14:28:48.208Z,7.19
2022-12-25T14:30:49.813Z,7.18
2022-12-25T14:32:54.325Z,7.19
2022-12-25T14:35:00.203Z,7.19
2022-12-25T14:37:03.749Z,7.18
2022-12-25T14:39:07.604Z,7.18
2022-12-25T14:41:33.291Z,7.18
2022-12-25T14:43:36.361Z,7.17
2022-12-25T14:45:41.050Z,7.17
2022-12-25T14:47:54.723Z,7.17
2022-12-25T14:49:56.752Z,7.16
2022-12-25T14:51:58.746Z,7.14
2022-12-25T14:54:03.837Z,7.15
2022-12-25T14:56:07.789Z,7.15
2022-12-25T14:58:20.517Z,7.15
2022-12-25T15:00:31.667Z,7.14
2022-12-25T15:02:45.792Z,7.14
2022-12-25T15:04:47.496Z,7.13
2022-12-25T15:06:57.619Z,7.12
2022-12-25T15:09:01.780Z,7.11
2022-12-25T15:11:03.689Z,7.11
2022-12-25T15:13:06.221Z,7.09
2022-12-25T15:15:08.127Z,7.11
2022-12-25T15:17:24.536Z,7.09
2022-12-25T15:19:36.944Z,7.09
2022-12-25T15:21:39.174Z,7.09
2022-12-25T15:23:41.947Z,7.09
2022-12-25T15:25:43.438Z,7.08
2022-12-25T15:27:44.905Z,7.09
2022-12-25T15:30:09.077Z,7.09
2022-12-25T15:32:24.164Z,7.09
2022-12-25T15:34:25.595Z,7.09
2022-12-25T15:36:27.865Z,7.08
2022-12-25T15:38:36.342Z,7.09
2022-12-25T15:40:38.640Z,7.10
2022-12-25T15:42:41.132Z,7.10
2022-12-25T15:44:43.675Z,7.10
2022-12-25T15:46:46.061Z,7.11
2022-12-25T15:48:47.617Z,7.11
2022-12-25T15:50:49.402Z,7.11
2022-12-25T15:52:51.039Z,7.11
2022-12-25T15:54:54.139Z,7.12
2022-12-25T15:56:58.445Z,7.12
2022-12-25T15:58:59.898Z,7.13
2022-12-25T16:01:01.693Z,7.11
2022-12-25T16:03:03.351Z,7.13
2022-12-25T16:05:10.274Z,7.12
2022-12-25T16:07:20.779Z,7.13
2022-12-25T16:09:22.397Z,7.12
2022-12-25T16:11:23.870Z,7.13
2022-12-25T16:13:25.361Z,7.13
2022-12-25T16:15:26.821Z,7.13
2022-12-25T16:17:28.332Z,7.14
2022-12-25T16:19:29.829Z,7.15
2022-12-25T16:21:41.143Z,7.15
2022-12-25T16:23:43.218Z,7.14
2022-12-25T16:25:44.976Z,7.17
2022-12-25T16:27:46.704Z,7.18
2022-12-25T16:29:48.199Z,7.17
2022-12-25T16:31:49.674Z,7.18
2022-12-25T16:33:52.893Z,7.19
2022-12-25T16:35:55.012Z,7.19
2022-12-25T16:37:56.478Z,7.17
2022-12-25T16:39:57.928Z,7.21
2022-12-25T16:41:59.552Z,7.23
2022-12-25T16:44:09.298Z,7.25
2022-12-25T16:46:15.238Z,7.26
2022-12-25T16:48:16.818Z,7.27
2022-12-25T16:50:18.653Z,7.27
2022-12-25T16:52:20.165Z,7.29
2022-12-25T16:54:21.668Z,7.30
2022-12-25T16:56:28.284Z,7.30
2022-12-25T16:58:31.481Z,7.32
2022-12-25T17:00:32.925Z,7.31
2022-12-25T17:02:34.771Z,7.31
2022-12-25T17:04:36.446Z,7.32
2022-12-25T17:06:37.915Z,7.33
2022-12-25T17:08:39.387Z,7.34
2022-12-25T17:10:40.825Z,7.33
2022-12-25T17:12:42.477Z,7.34
2022-12-25T17:14:43.949Z,7.35
2022-12-25T17:16:45.743Z,7.35
2022-12-25T17:18:47.343Z,7.36
2022-12-25T17:20:50.047Z,7.37
2022-12-25T17:22:51.588Z,7.36
2022-12-25T17:24:53.097Z,7.37
2022-12-25T17:26:54.592Z,7.39
2022-12-25T17:28:57.146Z,7.38
2022-12-25T17:31:10.599Z,7.39
2022-12-25T17:33:12.156Z,7.38
2022-12-25T17:35:13.732Z,7.38
2022-12-25T17:37:15.170Z,7.39
2022-12-25T17:39:16.632Z,7.39
2022-12-25T17:41:19.088Z,7.40
2022-12-25T17:43:21.167Z,7.41
2022-12-25T17:45:22.771Z,7.40
2022-12-25T17:47:24.229Z,7.41
2022-12-25T17:49:26.188Z,7.41
2022-12-25T17:51:29.518Z,7.41
2022-12-25T17:53:31.177Z,7.43
2022-12-25T17:55:36.360Z,7.43
2022-12-25T17:57:38.858Z,7.43
2022-12-25T17:59:42.560Z,7.44
2022-12-25T18:01:44.215Z,7.45
2022-12-25T18:03:47.094Z,7.45
2022-12-25T18:05:48.962Z,7.46
2022-12-25T18:07:50.445Z,7.47
2022-12-25T18:09:51.896Z,7.46
2022-12-25T18:11:53.371Z,7.48
2022-12-25T18:13:57.936Z,7.48
2022-12-25T18:16:07.405Z,7.49
2022-12-25T18:18:09.321Z,7.48
2022-12-25T18:20:11.047Z,7.47
2022-12-25T18:22:12.529Z,7.47
2022-12-25T18:24:14.015Z,7.48
2022-12-25T18:26:15.813Z,7.48
2022-12-25T18:28:17.584Z,7.48
2022-12-25T18:30:20.010Z,7.49
2022-12-25T18:32:27.852Z,7.51
2022-12-25T18:34:29.671Z,7.50
2022-12-25T18:36:31.611Z,7.53
2022-12-25T18:38:33.331Z,7.52
2022-12-25T18:40:40.149Z,7.53
2022-12-25T18:42:43.022Z,7.54
2022-12-25T18:44:45.008Z,7.55
2022-12-25T18:46:46.469Z,7.54
2022-12-25T18:48:47.960Z,7.54
2022-12-25T18:50:56.428Z,7.54
2022-12-25T18:52:57.887Z,7.53
2022-12-25T18:54:59.399Z,7.54
2022-12-25T18:57:06.868Z,7.53
2022-12-25T18:59:08.695Z,7.53
2022-12-25T19:01:12.414Z,7.54
2022-12-25T19:03:14.334Z,7.54
2022-12-25T19:05:16.109Z,7.54
2022-12-25T19:07:17.595Z,7.54
2022-12-25T19:09:20.151Z,7.54
2022-12-25T19:11:22.809Z,7.55
2022-12-25T19:13:24.337Z,7.56
2022-12-25T19:15:25.930Z,7.57
2022-12-25T19:17:31.928Z,7.59
2022-12-25T19:19:33.851Z,7.59
2022-12-25T19:21:35.339Z,7.59
2022-12-25T19:23:37.996Z,7.59
2022-12-25T19:25:40.559Z,7.59
2022-12-25T19:27:42.018Z,7.60
2022-12-25T19:29:43.594Z,7.59
2022-12-25T19:31:45.142Z,7.59
2022-12-25T19:33:46.602Z,7.59
2022-12-25T19:35:49.005Z,7.58
2022-12-25T19:37:50.564Z,7.60
2022-12-25T19:39:52.007Z,7.60
2022-12-25T19:41:53.467Z,7.60
2022-12-25T19:43:54.913Z,7.59
2022-12-25T19:45:57.155Z,7.57
2022-12-25T19:47:58.690Z,7.57
2022-12-25T19:50:03.193Z,7.58
2022-12-25T19:52:05.611Z,7.58
2022-12-25T19:54:07.676Z,7.58
2022-12-25T19:56:09.520Z,7.57
2022-12-25T19:58:11.561Z,7.58
2022-12-25T20:00:13.366Z,7.58
2022-12-25T20:02:15.022Z,7.59
2022-12-25T20:04:18.190Z,7.58
2022-12-25T20:06:25.866Z,7.60
2022-12-25T20:08:27.936Z,7.59
2022-12-25T20:10:29.632Z,7.57
2022-12-25T20:12:31.170Z,7.57
2022-12-25T20:14:32.717Z,7.55
2022-12-25T20:16:38.142Z,7.56
2022-12-25T20:18:40.463Z,7.56
2022-12-25T20:20:42.887Z,7.57
2022-12-25T20:22:44.344Z,7.55
2022-12-25T20:24:47.715Z,7.56
2022-12-25T20:26:53.753Z,7.56
2022-12-25T20:28:59.316Z,7.56
2022-12-25T20:31:17.449Z,7.56
2022-12-25T20:33:19.010Z,7.55
2022-12-25T20:35:20.465Z,7.56
2022-12-25T20:37:22.044Z,7.55
2022-12-25T20:39:23.541Z,7.56
2022-12-25T20:41:27.427Z,7.57
2022-12-25T20:43:30.664Z,7.58
2022-12-25T20:45:32.429Z,7.59
2022-12-25T20:47:35.017Z,7.59
2022-12-25T20:49:36.510Z,7.59
2022-12-25T20:51:38.184Z,7.56
2022-12-25T20:53:40.540Z,7.55
2022-12-25T20:55:49.701Z,7.56
2022-12-25T20:57:51.273Z,7.56
2022-12-25T20:59:53.429Z,7.52
2022-12-25T21:01:55.931Z,7.52
2022-12-25T21:03:58.212Z,7.51
2022-12-25T21:06:00.046Z,7.52
2022-12-25T21:08:02.170Z,7.52
2022-12-25T21:10:04.676Z,7.53
2022-12-25T21:12:06.849Z,7.53
2022-12-25T21:14:08.756Z,7.55
2022-12-25T21:16:13.568Z,7.56
2022-12-25T21:18:20.538Z,7.58
2022-12-25T21:20:22.042Z,7.58
2022-12-25T21:22:23.512Z,7.56
2022-12-25T21:24:25.010Z,7.56
2022-12-25T21:26:28.743Z,7.56
2022-12-25T21:28:32.256Z,7.55
2022-12-25T21:30:34.301Z,7.57
2022-12-25T21:33:16.979Z,7.56
2022-12-25T21:35:18.840Z,7.56
2022-12-25T21:37:20.284Z,7.57
2022-12-25T21:39:21.924Z,7.59
2022-12-25T21:41:24.785Z,7.59
2022-12-25T21:43:26.280Z,7.60
2022-12-25T21:45:28.506Z,7.60
2022-12-25T21:48:01.899Z,7.58
2022-12-25T21:50:10.033Z,7.56
2022-12-25T21:52:12.103Z,7.56
2022-12-25T21:54:14.471Z,7.57
2022-12-25T21:56:16.465Z,7.58
2022-12-25T21:58:17.901Z,7.59
2022-12-25T22:00:19.867Z,7.61
2022-12-25T22:02:22.359Z,7.60
2022-12-25T22:04:24.005Z,7.59
2022-12-25T22:06:48.282Z,7.59
2022-12-25T22:08:49.792Z,7.58
2022-12-25T22:10:51.313Z,7.57
2022-12-25T22:13:11.224Z,7.57
2022-12-25T22:15:12.774Z,7.60
2022-12-25T22:17:33.012Z,7.60
2022-12-25T22:19:48.134Z,7.61
2022-12-25T22:21:49.630Z,7.60
2022-12-25T22:23:51.207Z,7.60
2022-12-25T22:25:52.694Z,7.59
2022-12-25T22:27:54.888Z,7.57
2022-12-25T22:29:57.026Z,7.57
2022-12-25T22:31:58.573Z,7.58
2022-12-25T22:34:00.038Z,7.60
2022-12-25T22:36:07.258Z,7.62
2022-12-25T22:38:08.804Z,7.64
2022-12-25T22:40:13.643Z,7.64
2022-12-25T22:42:15.763Z,7.63
2022-12-25T22:44:18.209Z,7.62
2022-12-25T22:46:20.099Z,7.60
2022-12-25T22:48:21.596Z,7.57
2022-12-25T22:50:23.167Z,7.56
2022-12-25T22:52:24.928Z,7.55
2022-12-25T22:54:29.333Z,7.55
2022-12-25T22:56:30.945Z,7.54
2022-12-25T22:58:32.398Z,7.54
2022-12-25T23:00:33.872Z,7.52
2022-12-25T23:02:35.591Z,7.52
2022-12-25T23:04:37.258Z,7.52
2022-12-25T23:06:39.774Z,7.49
2022-12-25T23:08:41.258Z,7.48
2022-12-25T23:10:42.720Z,7.48
2022-12-25T23:13:02.568Z,7.47
2022-12-25T23:15:04.377Z,7.47
2022-12-25T23:17:28.312Z,7.49
2022-12-25T23:19:48.483Z,7.51
2022-12-25T23:22:08.892Z,7.53
2022-12-25T23:24:29.228Z,7.54
2022-12-25T23:26:30.750Z,7.53
2022-12-25T23:28:50.762Z,7.53
2022-12-25T23:30:52.232Z,7.51
2022-12-25T23:32:53.703Z,7.48
2022-12-25T23:34:55.893Z,7.46
2022-12-25T23:36:57.672Z,7.47
2022-12-25T23:39:04.870Z,7.45
2022-12-25T23:41:10.360Z,7.43
2022-12-25T23:43:11.907Z,7.43
2022-12-25T23:45:13.789Z,7.44
2022-12-25T23:47:15.314Z,7.45
2022-12-25T23:49:17.227Z,7.45
2022-12-25T23:51:18.702Z,7.41
2022-12-25T23:53:20.182Z,7.40
2022-12-25T23:55:21.752Z,7.40
2022-12-25T23:57:23.279Z,7.41
2022-12-25T23:59:26.445Z,7.43
